sensor_id;sensor_type;location;lat;lon;timestamp;temperature;humidity
33655;DHT22;19997;51.274;22.506;2023-03-21T00:02:10;10.70;99.90
33655;DHT22;19997;51.274;22.506;2023-03-21T00:04:37;10.70;99.90
33655;DHT22;19997;51.274;22.506;2023-03-21T00:07:04;10.70;99.90
33655;DHT22;19997;51.274;22.506;2023-03-21T00:09:31;10.70;99.90
33655;DHT22;19997;51.274;22.506;2023-03-21T00:11:58;10.70;99.90
33655;DHT22;19997;51.274;22.506;2023-03-21T00:14:26;10.80;99.90
33655;DHT22;19997;51.274;22.506;2023-03-21T00:16:57;10.80;99.90
33655;DHT22;19997;51.274;22.506;2023-03-21T00:19:24;10.80;99.90
33655;DHT22;19997;51.274;22.506;2023-03-21T00:21:53;10.80;99.90
33655;DHT22;19997;51.274;22.506;2023-03-21T00:24:21;10.70;99.90
33655;DHT22;19997;51.274;22.506;2023-03-21T00:26:48;10.70;99.90
33655;DHT22;19997;51.274;22.506;2023-03-21T00:29:17;10.70;99.90
33655;DHT22;19997;51.274;22.506;2023-03-21T00:31:45;10.60;99.90
33655;DHT22;19997;51.274;22.506;2023-03-21T00:34:14;10.60;99.90
33655;DHT22;19997;51.274;22.506;2023-03-21T00:36:41;10.60;99.90
33655;DHT22;19997;51.274;22.506;2023-03-21T00:39:08;10.60;99.90
33655;DHT22;19997;51.274;22.506;2023-03-21T00:41:35;10.70;99.90
33655;DHT22;19997;51.274;22.506;2023-03-21T00:44:02;10.70;99.90
33655;DHT22;19997;51.274;22.506;2023-03-21T00:46:29;10.60;99.90
33655;DHT22;19997;51.274;22.506;2023-03-21T00:48:57;10.60;99.90
33655;DHT22;19997;51.274;22.506;2023-03-21T00:51:26;10.60;99.90
33655;DHT22;19997;51.274;22.506;2023-03-21T00:53:54;10.60;99.90
33655;DHT22;19997;51.274;22.506;2023-03-21T00:56:25;10.60;99.90
33655;DHT22;19997;51.274;22.506;2023-03-21T00:58:52;10.60;99.90
33655;DHT22;19997;51.274;22.506;2023-03-21T01:01:19;10.60;99.90
33655;DHT22;19997;51.274;22.506;2023-03-21T01:03:47;10.60;99.90
33655;DHT22;19997;51.274;22.506;2023-03-21T01:06:17;10.60;99.90
33655;DHT22;19997;51.274;22.506;2023-03-21T01:08:51;10.60;99.90
33655;DHT22;19997;51.274;22.506;2023-03-21T01:11:19;10.60;99.90
33655;DHT22;19997;51.274;22.506;2023-03-21T01:13:47;10.60;99.90
33655;DHT22;19997;51.274;22.506;2023-03-21T01:16:14;10.60;99.90
33655;DHT22;19997;51.274;22.506;2023-03-21T01:18:41;10.60;99.90
33655;DHT22;19997;51.274;22.506;2023-03-21T01:21:12;10.60;99.90
33655;DHT22;19997;51.274;22.506;2023-03-21T01:23:40;10.60;99.90
33655;DHT22;19997;51.274;22.506;2023-03-21T01:26:11;10.60;99.90
33655;DHT22;19997;51.274;22.506;2023-03-21T01:28:41;10.60;99.90
33655;DHT22;19997;51.274;22.506;2023-03-21T01:31:10;10.60;99.90
33655;DHT22;19997;51.274;22.506;2023-03-21T01:33:37;10.60;99.90
33655;DHT22;19997;51.274;22.506;2023-03-21T01:36:05;10.60;99.90
33655;DHT22;19997;51.274;22.506;2023-03-21T01:38:32;10.50;99.90
33655;DHT22;19997;51.274;22.506;2023-03-21T01:41:00;10.50;99.90
33655;DHT22;19997;51.274;22.506;2023-03-21T01:43:35;10.50;99.90
33655;DHT22;19997;51.274;22.506;2023-03-21T01:46:21;10.40;99.90
33655;DHT22;19997;51.274;22.506;2023-03-21T01:49:10;10.40;99.90
33655;DHT22;19997;51.274;22.506;2023-03-21T01:51:42;10.40;99.90
33655;DHT22;19997;51.274;22.506;2023-03-21T01:54:16;10.40;99.90
33655;DHT22;19997;51.274;22.506;2023-03-21T01:56:46;10.40;99.90
33655;DHT22;19997;51.274;22.506;2023-03-21T01:59:19;10.40;99.90
33655;DHT22;19997;51.274;22.506;2023-03-21T02:02:13;10.30;99.90
33655;DHT22;19997;51.274;22.506;2023-03-21T02:05:03;10.40;99.90
33655;DHT22;19997;51.274;22.506;2023-03-21T02:07:31;10.30;99.90
33655;DHT22;19997;51.274;22.506;2023-03-21T02:10:09;10.30;99.90
33655;DHT22;19997;51.274;22.506;2023-03-21T02:12:41;10.30;99.90
33655;DHT22;19997;51.274;22.506;2023-03-21T02:15:11;10.30;99.90
33655;DHT22;19997;51.274;22.506;2023-03-21T02:17:59;10.30;99.90
33655;DHT22;19997;51.274;22.506;2023-03-21T02:21:17;10.20;99.90
33655;DHT22;19997;51.274;22.506;2023-03-21T02:24:33;10.20;99.90
33655;DHT22;19997;51.274;22.506;2023-03-21T02:27:13;10.20;99.90
33655;DHT22;19997;51.274;22.506;2023-03-21T02:30:19;10.20;99.90
33655;DHT22;19997;51.274;22.506;2023-03-21T02:33:17;10.10;99.90
33655;DHT22;19997;51.274;22.506;2023-03-21T02:35:59;10.10;99.90
33655;DHT22;19997;51.274;22.506;2023-03-21T02:38:35;10.10;99.90
33655;DHT22;19997;51.274;22.506;2023-03-21T02:41:08;10.10;99.90
33655;DHT22;19997;51.274;22.506;2023-03-21T02:43:42;10.00;99.90
33655;DHT22;19997;51.274;22.506;2023-03-21T02:46:14;10.00;99.90
33655;DHT22;19997;51.274;22.506;2023-03-21T02:48:46;10.00;99.90
33655;DHT22;19997;51.274;22.506;2023-03-21T02:51:18;10.00;99.90
33655;DHT22;19997;51.274;22.506;2023-03-21T02:53:49;10.00;99.90
33655;DHT22;19997;51.274;22.506;2023-03-21T02:56:17;10.00;99.90
33655;DHT22;19997;51.274;22.506;2023-03-21T02:58:52;10.00;99.90
33655;DHT22;19997;51.274;22.506;2023-03-21T03:01:20;10.00;99.90
33655;DHT22;19997;51.274;22.506;2023-03-21T03:03:51;10.00;99.90
33655;DHT22;19997;51.274;22.506;2023-03-21T03:06:22;10.00;99.90
33655;DHT22;19997;51.274;22.506;2023-03-21T03:09:13;10.00;99.90
33655;DHT22;19997;51.274;22.506;2023-03-21T03:11:43;9.90;99.90
33655;DHT22;19997;51.274;22.506;2023-03-21T03:14:30;9.90;99.90
33655;DHT22;19997;51.274;22.506;2023-03-21T03:17:11;9.90;99.90
33655;DHT22;19997;51.274;22.506;2023-03-21T03:19:52;9.90;99.90
33655;DHT22;19997;51.274;22.506;2023-03-21T03:22:23;10.00;99.90
33655;DHT22;19997;51.274;22.506;2023-03-21T03:24:56;10.00;99.90
33655;DHT22;19997;51.274;22.506;2023-03-21T03:27:27;9.90;99.90
33655;DHT22;19997;51.274;22.506;2023-03-21T03:29:57;9.90;99.90
33655;DHT22;19997;51.274;22.506;2023-03-21T03:32:30;9.90;99.90
33655;DHT22;19997;51.274;22.506;2023-03-21T03:35:00;9.90;99.90
33655;DHT22;19997;51.274;22.506;2023-03-21T03:37:32;9.90;99.90
33655;DHT22;19997;51.274;22.506;2023-03-21T03:40:07;9.90;99.90
33655;DHT22;19997;51.274;22.506;2023-03-21T03:42:40;9.90;99.90
33655;DHT22;19997;51.274;22.506;2023-03-21T03:45:34;9.90;99.90
33655;DHT22;19997;51.274;22.506;2023-03-21T03:48:06;9.90;99.90
33655;DHT22;19997;51.274;22.506;2023-03-21T03:50:42;9.90;99.90
33655;DHT22;19997;51.274;22.506;2023-03-21T03:53:19;9.90;99.90
33655;DHT22;19997;51.274;22.506;2023-03-21T03:55:53;9.90;99.90
33655;DHT22;19997;51.274;22.506;2023-03-21T03:58:23;9.90;99.90
33655;DHT22;19997;51.274;22.506;2023-03-21T04:00:53;9.90;99.90
33655;DHT22;19997;51.274;22.506;2023-03-21T04:03:20;9.80;99.90
33655;DHT22;19997;51.274;22.506;2023-03-21T04:05:48;9.90;99.90
33655;DHT22;19997;51.274;22.506;2023-03-21T04:08:17;9.80;99.90
33655;DHT22;19997;51.274;22.506;2023-03-21T04:10:51;9.80;99.90
33655;DHT22;19997;51.274;22.506;2023-03-21T04:13:19;9.80;99.90
33655;DHT22;19997;51.274;22.506;2023-03-21T04:16:08;9.80;99.90
33655;DHT22;19997;51.274;22.506;2023-03-21T04:18:36;9.80;99.90
33655;DHT22;19997;51.274;22.506;2023-03-21T04:21:09;9.70;99.90
33655;DHT22;19997;51.274;22.506;2023-03-21T04:23:37;9.70;99.90
33655;DHT22;19997;51.274;22.506;2023-03-21T04:26:07;9.80;99.90
33655;DHT22;19997;51.274;22.506;2023-03-21T04:28:38;9.70;99.90
33655;DHT22;19997;51.274;22.506;2023-03-21T04:31:26;9.70;99.90
33655;DHT22;19997;51.274;22.506;2023-03-21T04:34:05;9.80;99.90
33655;DHT22;19997;51.274;22.506;2023-03-21T04:36:35;9.80;99.90
33655;DHT22;19997;51.274;22.506;2023-03-21T04:39:08;9.80;99.90
33655;DHT22;19997;51.274;22.506;2023-03-21T04:41:39;9.80;99.90
33655;DHT22;19997;51.274;22.506;2023-03-21T04:44:06;9.70;99.90
33655;DHT22;19997;51.274;22.506;2023-03-21T04:46:35;9.80;99.90
33655;DHT22;19997;51.274;22.506;2023-03-21T04:49:03;9.80;99.90
33655;DHT22;19997;51.274;22.506;2023-03-21T04:51:31;9.70;99.90
33655;DHT22;19997;51.274;22.506;2023-03-21T04:53:59;9.70;99.90
33655;DHT22;19997;51.274;22.506;2023-03-21T04:56:27;9.70;99.90
33655;DHT22;19997;51.274;22.506;2023-03-21T04:59:00;9.70;99.90
33655;DHT22;19997;51.274;22.506;2023-03-21T05:01:28;9.70;99.90
33655;DHT22;19997;51.274;22.506;2023-03-21T05:03:56;9.70;99.90
33655;DHT22;19997;51.274;22.506;2023-03-21T05:06:24;9.70;99.90
33655;DHT22;19997;51.274;22.506;2023-03-21T05:08:52;9.70;99.90
33655;DHT22;19997;51.274;22.506;2023-03-21T05:11:21;9.70;99.90
33655;DHT22;19997;51.274;22.506;2023-03-21T05:13:49;9.70;99.90
33655;DHT22;19997;51.274;22.506;2023-03-21T05:16:17;9.70;99.90
33655;DHT22;19997;51.274;22.506;2023-03-21T05:18:45;9.70;99.90
33655;DHT22;19997;51.274;22.506;2023-03-21T05:21:18;9.70;99.90
33655;DHT22;19997;51.274;22.506;2023-03-21T05:23:47;9.80;99.90
33655;DHT22;19997;51.274;22.506;2023-03-21T05:26:20;9.80;99.90
33655;DHT22;19997;51.274;22.506;2023-03-21T05:28:57;9.90;99.90
33655;DHT22;19997;51.274;22.506;2023-03-21T05:31:26;9.90;99.90
33655;DHT22;19997;51.274;22.506;2023-03-21T05:34:04;9.90;99.90
33655;DHT22;19997;51.274;22.506;2023-03-21T05:36:31;9.90;99.90
33655;DHT22;19997;51.274;22.506;2023-03-21T05:39:02;9.90;99.90
33655;DHT22;19997;51.274;22.506;2023-03-21T05:41:32;10.00;99.90
33655;DHT22;19997;51.274;22.506;2023-03-21T05:44:02;10.00;99.90
33655;DHT22;19997;51.274;22.506;2023-03-21T05:46:31;10.00;99.90
33655;DHT22;19997;51.274;22.506;2023-03-21T05:48:59;10.10;99.90
33655;DHT22;19997;51.274;22.506;2023-03-21T05:51:26;10.10;99.90
33655;DHT22;19997;51.274;22.506;2023-03-21T05:53:54;10.20;99.90
33655;DHT22;19997;51.274;22.506;2023-03-21T05:56:21;10.20;99.90
33655;DHT22;19997;51.274;22.506;2023-03-21T05:58:53;10.30;99.90
33655;DHT22;19997;51.274;22.506;2023-03-21T06:01:21;10.30;99.90
33655;DHT22;19997;51.274;22.506;2023-03-21T06:03:58;10.30;99.90
33655;DHT22;19997;51.274;22.506;2023-03-21T06:06:27;10.20;99.90
33655;DHT22;19997;51.274;22.506;2023-03-21T06:08:58;10.20;99.90
33655;DHT22;19997;51.274;22.506;2023-03-21T06:11:28;10.20;99.90
33655;DHT22;19997;51.274;22.506;2023-03-21T06:14:16;10.20;99.90
33655;DHT22;19997;51.274;22.506;2023-03-21T06:16:48;10.20;99.90
33655;DHT22;19997;51.274;22.506;2023-03-21T06:19:17;10.10;99.90
33655;DHT22;19997;51.274;22.506;2023-03-21T06:22:06;10.10;99.90
33655;DHT22;19997;51.274;22.506;2023-03-21T06:24:37;10.10;99.90
33655;DHT22;19997;51.274;22.506;2023-03-21T06:27:05;10.20;99.90
33655;DHT22;19997;51.274;22.506;2023-03-21T06:29:46;10.20;99.90
33655;DHT22;19997;51.274;22.506;2023-03-21T06:32:14;10.30;99.90
33655;DHT22;19997;51.274;22.506;2023-03-21T06:34:44;10.30;99.90
33655;DHT22;19997;51.274;22.506;2023-03-21T06:37:14;10.40;99.90
33655;DHT22;19997;51.274;22.506;2023-03-21T06:39:41;10.40;99.90
33655;DHT22;19997;51.274;22.506;2023-03-21T06:42:09;10.50;99.90
33655;DHT22;19997;51.274;22.506;2023-03-21T06:44:37;10.50;99.90
33655;DHT22;19997;51.274;22.506;2023-03-21T06:47:08;10.60;99.90
33655;DHT22;19997;51.274;22.506;2023-03-21T06:49:35;10.60;99.90
33655;DHT22;19997;51.274;22.506;2023-03-21T06:52:09;10.70;99.90
33655;DHT22;19997;51.274;22.506;2023-03-21T06:54:37;10.70;99.90
33655;DHT22;19997;51.274;22.506;2023-03-21T06:57:09;10.70;99.90
33655;DHT22;19997;51.274;22.506;2023-03-21T06:59:39;10.70;99.90
33655;DHT22;19997;51.274;22.506;2023-03-21T07:02:10;10.70;99.90
33655;DHT22;19997;51.274;22.506;2023-03-21T07:04:46;10.70;99.90
33655;DHT22;19997;51.274;22.506;2023-03-21T07:07:23;10.70;99.90
33655;DHT22;19997;51.274;22.506;2023-03-21T07:09:50;10.70;99.90
33655;DHT22;19997;51.274;22.506;2023-03-21T07:12:17;10.80;99.90
33655;DHT22;19997;51.274;22.506;2023-03-21T07:15:03;10.90;99.90
33655;DHT22;19997;51.274;22.506;2023-03-21T07:17:31;10.90;99.90
33655;DHT22;19997;51.274;22.506;2023-03-21T07:19:59;10.90;99.90
33655;DHT22;19997;51.274;22.506;2023-03-21T07:22:29;10.90;99.90
33655;DHT22;19997;51.274;22.506;2023-03-21T07:24:56;10.90;99.90
33655;DHT22;19997;51.274;22.506;2023-03-21T07:27:24;10.80;99.90
33655;DHT22;19997;51.274;22.506;2023-03-21T07:29:51;10.80;99.90
33655;DHT22;19997;51.274;22.506;2023-03-21T07:32:18;10.80;99.90
33655;DHT22;19997;51.274;22.506;2023-03-21T07:34:45;10.80;99.90
33655;DHT22;19997;51.274;22.506;2023-03-21T07:37:12;10.90;99.90
33655;DHT22;19997;51.274;22.506;2023-03-21T07:39:42;10.90;99.90
33655;DHT22;19997;51.274;22.506;2023-03-21T07:42:10;10.80;99.90
33655;DHT22;19997;51.274;22.506;2023-03-21T07:44:38;10.80;99.90
33655;DHT22;19997;51.274;22.506;2023-03-21T07:47:05;10.80;99.90
33655;DHT22;19997;51.274;22.506;2023-03-21T07:49:32;10.80;99.90
33655;DHT22;19997;51.274;22.506;2023-03-21T07:52:00;10.70;99.90
33655;DHT22;19997;51.274;22.506;2023-03-21T07:54:28;10.70;99.90
33655;DHT22;19997;51.274;22.506;2023-03-21T07:56:56;10.70;99.90
33655;DHT22;19997;51.274;22.506;2023-03-21T07:59:23;10.70;99.90
33655;DHT22;19997;51.274;22.506;2023-03-21T08:01:50;10.70;99.90
33655;DHT22;19997;51.274;22.506;2023-03-21T08:04:18;10.70;99.90
33655;DHT22;19997;51.274;22.506;2023-03-21T08:06:45;10.70;99.90
33655;DHT22;19997;51.274;22.506;2023-03-21T08:09:12;10.80;99.90
33655;DHT22;19997;51.274;22.506;2023-03-21T08:11:39;10.90;99.90
33655;DHT22;19997;51.274;22.506;2023-03-21T08:14:07;10.90;99.90
33655;DHT22;19997;51.274;22.506;2023-03-21T08:16:35;11.00;99.90
33655;DHT22;19997;51.274;22.506;2023-03-21T08:19:02;11.10;99.90
33655;DHT22;19997;51.274;22.506;2023-03-21T08:21:30;11.20;99.90
33655;DHT22;19997;51.274;22.506;2023-03-21T08:23:57;11.30;99.90
33655;DHT22;19997;51.274;22.506;2023-03-21T08:26:25;11.40;99.90
33655;DHT22;19997;51.274;22.506;2023-03-21T08:28:52;11.40;99.90
33655;DHT22;19997;51.274;22.506;2023-03-21T08:31:20;11.50;99.90
33655;DHT22;19997;51.274;22.506;2023-03-21T08:33:47;11.60;99.90
33655;DHT22;19997;51.274;22.506;2023-03-21T08:36:18;11.60;99.90
33655;DHT22;19997;51.274;22.506;2023-03-21T08:38:45;11.80;99.90
33655;DHT22;19997;51.274;22.506;2023-03-21T08:41:13;11.90;99.70
33655;DHT22;19997;51.274;22.506;2023-03-21T08:43:40;11.90;98.10
33655;DHT22;19997;51.274;22.506;2023-03-21T08:46:07;11.90;97.00
33655;DHT22;19997;51.274;22.506;2023-03-21T08:48:35;11.90;96.30
33655;DHT22;19997;51.274;22.506;2023-03-21T08:51:03;11.80;95.80
33655;DHT22;19997;51.274;22.506;2023-03-21T08:53:31;11.70;96.10
33655;DHT22;19997;51.274;22.506;2023-03-21T08:55:58;11.70;95.90
33655;DHT22;19997;51.274;22.506;2023-03-21T08:58:26;11.70;95.60
33655;DHT22;19997;51.274;22.506;2023-03-21T09:00:53;11.60;96.20
33655;DHT22;19997;51.274;22.506;2023-03-21T09:03:21;11.70;96.20
33655;DHT22;19997;51.274;22.506;2023-03-21T09:05:51;11.70;96.30
33655;DHT22;19997;51.274;22.506;2023-03-21T09:08:19;11.80;96.10
33655;DHT22;19997;51.274;22.506;2023-03-21T09:10:48;11.90;96.10
33655;DHT22;19997;51.274;22.506;2023-03-21T09:13:15;12.00;95.20
33655;DHT22;19997;51.274;22.506;2023-03-21T09:15:42;12.00;94.70
33655;DHT22;19997;51.274;22.506;2023-03-21T09:18:10;12.00;94.90
33655;DHT22;19997;51.274;22.506;2023-03-21T09:20:41;12.00;95.30
33655;DHT22;19997;51.274;22.506;2023-03-21T09:23:10;12.00;95.00
33655;DHT22;19997;51.274;22.506;2023-03-21T09:25:38;12.00;94.50
33655;DHT22;19997;51.274;22.506;2023-03-21T09:28:06;11.90;94.60
33655;DHT22;19997;51.274;22.506;2023-03-21T09:30:34;11.90;94.80
33655;DHT22;19997;51.274;22.506;2023-03-21T09:33:04;11.90;94.60
33655;DHT22;19997;51.274;22.506;2023-03-21T09:35:33;11.90;94.40
33655;DHT22;19997;51.274;22.506;2023-03-21T09:38:03;11.90;94.10
33655;DHT22;19997;51.274;22.506;2023-03-21T09:40:47;11.90;94.30
33655;DHT22;19997;51.274;22.506;2023-03-21T09:43:27;11.80;94.40
33655;DHT22;19997;51.274;22.506;2023-03-21T09:45:59;11.70;94.40
33655;DHT22;19997;51.274;22.506;2023-03-21T09:48:35;11.70;94.40
33655;DHT22;19997;51.274;22.506;2023-03-21T09:51:11;11.60;94.60
33655;DHT22;19997;51.274;22.506;2023-03-21T09:53:41;11.60;94.80
33655;DHT22;19997;51.274;22.506;2023-03-21T09:56:11;11.70;95.20
33655;DHT22;19997;51.274;22.506;2023-03-21T09:58:42;11.80;94.60
33655;DHT22;19997;51.274;22.506;2023-03-21T10:01:15;11.80;94.00
33655;DHT22;19997;51.274;22.506;2023-03-21T10:03:53;11.90;93.90
33655;DHT22;19997;51.274;22.506;2023-03-21T10:06:22;12.00;93.60
33655;DHT22;19997;51.274;22.506;2023-03-21T10:08:55;12.00;93.40
33655;DHT22;19997;51.274;22.506;2023-03-21T10:11:27;12.10;92.80
33655;DHT22;19997;51.274;22.506;2023-03-21T10:13:58;12.00;92.60
33655;DHT22;19997;51.274;22.506;2023-03-21T10:16:30;12.00;92.60
33655;DHT22;19997;51.274;22.506;2023-03-21T10:19:00;12.00;92.80
33655;DHT22;19997;51.274;22.506;2023-03-21T10:21:30;11.90;92.50
33655;DHT22;19997;51.274;22.506;2023-03-21T10:23:58;11.90;92.60
33655;DHT22;19997;51.274;22.506;2023-03-21T10:26:29;11.80;92.50
33655;DHT22;19997;51.274;22.506;2023-03-21T10:28:58;11.80;92.60
33655;DHT22;19997;51.274;22.506;2023-03-21T10:31:27;11.80;92.90
33655;DHT22;19997;51.274;22.506;2023-03-21T10:33:57;11.80;92.90
33655;DHT22;19997;51.274;22.506;2023-03-21T10:36:29;11.90;93.00
33655;DHT22;19997;51.274;22.506;2023-03-21T10:39:00;11.90;93.00
33655;DHT22;19997;51.274;22.506;2023-03-21T10:41:30;12.00;93.10
33655;DHT22;19997;51.274;22.506;2023-03-21T10:44:06;12.10;93.10
33655;DHT22;19997;51.274;22.506;2023-03-21T10:46:33;12.10;93.30
33655;DHT22;19997;51.274;22.506;2023-03-21T10:49:00;12.20;93.70
33655;DHT22;19997;51.274;22.506;2023-03-21T10:51:30;12.30;94.00
33655;DHT22;19997;51.274;22.506;2023-03-21T10:53:59;12.50;94.50
33655;DHT22;19997;51.274;22.506;2023-03-21T10:56:34;12.70;94.20
33655;DHT22;19997;51.274;22.506;2023-03-21T10:59:03;12.80;93.70
33655;DHT22;19997;51.274;22.506;2023-03-21T11:01:34;13.00;93.00
33655;DHT22;19997;51.274;22.506;2023-03-21T11:04:06;13.00;92.80
33655;DHT22;19997;51.274;22.506;2023-03-21T11:06:37;13.20;92.60
33655;DHT22;19997;51.274;22.506;2023-03-21T11:09:07;13.30;91.80
33655;DHT22;19997;51.274;22.506;2023-03-21T11:11:42;13.30;91.60
33655;DHT22;19997;51.274;22.506;2023-03-21T11:14:26;13.40;91.20
33655;DHT22;19997;51.274;22.506;2023-03-21T11:16:53;13.50;91.20
33655;DHT22;19997;51.274;22.506;2023-03-21T11:19:28;13.60;90.20
33655;DHT22;19997;51.274;22.506;2023-03-21T11:21:56;13.70;89.90
33655;DHT22;19997;51.274;22.506;2023-03-21T11:24:27;13.70;88.70
33655;DHT22;19997;51.274;22.506;2023-03-21T11:26:57;13.70;87.80
33655;DHT22;19997;51.274;22.506;2023-03-21T11:29:29;13.70;86.80
33655;DHT22;19997;51.274;22.506;2023-03-21T11:31:57;13.70;87.40
33655;DHT22;19997;51.274;22.506;2023-03-21T11:34:29;13.80;87.50
33655;DHT22;19997;51.274;22.506;2023-03-21T11:36:59;13.90;86.90
33655;DHT22;19997;51.274;22.506;2023-03-21T11:39:31;13.90;86.00
33655;DHT22;19997;51.274;22.506;2023-03-21T11:42:00;13.90;85.90
33655;DHT22;19997;51.274;22.506;2023-03-21T11:44:30;13.90;85.80
33655;DHT22;19997;51.274;22.506;2023-03-21T11:46:58;13.90;85.50
33655;DHT22;19997;51.274;22.506;2023-03-21T11:49:26;13.90;85.10
33655;DHT22;19997;51.274;22.506;2023-03-21T11:52:04;13.90;84.40
33655;DHT22;19997;51.274;22.506;2023-03-21T11:54:47;13.90;84.60
33655;DHT22;19997;51.274;22.506;2023-03-21T11:57:23;14.00;84.60
33655;DHT22;19997;51.274;22.506;2023-03-21T11:59:56;14.00;84.30
33655;DHT22;19997;51.274;22.506;2023-03-21T12:05:34;14.10;83.70
33655;DHT22;19997;51.274;22.506;2023-03-21T12:08:08;14.00;82.60
33655;DHT22;19997;51.274;22.506;2023-03-21T12:10:44;14.00;81.70
33655;DHT22;19997;51.274;22.506;2023-03-21T12:13:27;13.80;81.60
33655;DHT22;19997;51.274;22.506;2023-03-21T12:16:09;13.70;81.70
33655;DHT22;19997;51.274;22.506;2023-03-21T12:19:07;13.50;81.70
33655;DHT22;19997;51.274;22.506;2023-03-21T12:21:44;13.50;82.40
33655;DHT22;19997;51.274;22.506;2023-03-21T12:24:14;13.50;82.80
33655;DHT22;19997;51.274;22.506;2023-03-21T12:26:47;13.50;82.10
33655;DHT22;19997;51.274;22.506;2023-03-21T12:29:38;13.50;82.00
33655;DHT22;19997;51.274;22.506;2023-03-21T12:32:16;13.40;82.00
33655;DHT22;19997;51.274;22.506;2023-03-21T12:35:12;13.40;81.90
33655;DHT22;19997;51.274;22.506;2023-03-21T12:37:51;13.50;80.60
33655;DHT22;19997;51.274;22.506;2023-03-21T12:40:52;13.50;80.50
33655;DHT22;19997;51.274;22.506;2023-03-21T12:44:08;13.60;80.40
33655;DHT22;19997;51.274;22.506;2023-03-21T12:46:42;13.60;79.70
33655;DHT22;19997;51.274;22.506;2023-03-21T12:49:15;13.60;79.90
33655;DHT22;19997;51.274;22.506;2023-03-21T12:51:46;13.60;79.50
33655;DHT22;19997;51.274;22.506;2023-03-21T12:54:20;13.40;79.60
33655;DHT22;19997;51.274;22.506;2023-03-21T12:56:53;13.40;80.10
33655;DHT22;19997;51.274;22.506;2023-03-21T12:59:26;13.30;80.30
33655;DHT22;19997;51.274;22.506;2023-03-21T13:01:59;13.30;80.90
33655;DHT22;19997;51.274;22.506;2023-03-21T13:04:46;13.40;81.10
33655;DHT22;19997;51.274;22.506;2023-03-21T13:07:17;13.40;81.10
33655;DHT22;19997;51.274;22.506;2023-03-21T13:09:46;13.30;80.60
33655;DHT22;19997;51.274;22.506;2023-03-21T13:12:40;13.20;81.10
33655;DHT22;19997;51.274;22.506;2023-03-21T13:15:28;13.10;81.60
33655;DHT22;19997;51.274;22.506;2023-03-21T13:18:03;12.90;81.40
33655;DHT22;19997;51.274;22.506;2023-03-21T13:20:36;12.80;81.40
33655;DHT22;19997;51.274;22.506;2023-03-21T13:23:09;12.60;81.80
33655;DHT22;19997;51.274;22.506;2023-03-21T13:25:42;12.50;82.30
33655;DHT22;19997;51.274;22.506;2023-03-21T13:28:18;12.40;83.00
33655;DHT22;19997;51.274;22.506;2023-03-21T13:30:46;12.20;83.50
33655;DHT22;19997;51.274;22.506;2023-03-21T13:33:20;12.20;83.90
33655;DHT22;19997;51.274;22.506;2023-03-21T13:35:57;12.10;84.80
33655;DHT22;19997;51.274;22.506;2023-03-21T13:38:31;12.10;84.30
33655;DHT22;19997;51.274;22.506;2023-03-21T13:41:00;12.10;84.50
33655;DHT22;19997;51.274;22.506;2023-03-21T13:43:40;12.00;84.70
33655;DHT22;19997;51.274;22.506;2023-03-21T13:46:09;12.00;84.90
33655;DHT22;19997;51.274;22.506;2023-03-21T13:48:44;12.00;84.90
33655;DHT22;19997;51.274;22.506;2023-03-21T13:51:43;12.00;84.90
33655;DHT22;19997;51.274;22.506;2023-03-21T13:54:20;12.10;85.10
33655;DHT22;19997;51.274;22.506;2023-03-21T13:56:51;12.20;84.80
33655;DHT22;19997;51.274;22.506;2023-03-21T13:59:35;12.30;84.70
33655;DHT22;19997;51.274;22.506;2023-03-21T14:02:16;12.40;84.80
33655;DHT22;19997;51.274;22.506;2023-03-21T14:04:53;12.50;84.80
33655;DHT22;19997;51.274;22.506;2023-03-21T14:07:24;12.60;84.50
33655;DHT22;19997;51.274;22.506;2023-03-21T14:09:55;12.60;84.30
33655;DHT22;19997;51.274;22.506;2023-03-21T14:12:26;12.50;84.30
33655;DHT22;19997;51.274;22.506;2023-03-21T14:14:58;12.50;84.60
33655;DHT22;19997;51.274;22.506;2023-03-21T14:17:34;12.40;84.90
33655;DHT22;19997;51.274;22.506;2023-03-21T14:20:07;12.40;85.20
33655;DHT22;19997;51.274;22.506;2023-03-21T14:22:37;12.40;85.30
33655;DHT22;19997;51.274;22.506;2023-03-21T14:25:09;12.40;85.10
33655;DHT22;19997;51.274;22.506;2023-03-21T14:27:41;12.30;85.30
33655;DHT22;19997;51.274;22.506;2023-03-21T14:30:11;12.30;85.70
33655;DHT22;19997;51.274;22.506;2023-03-21T14:32:47;12.30;85.90
33655;DHT22;19997;51.274;22.506;2023-03-21T14:35:16;12.30;86.10
33655;DHT22;19997;51.274;22.506;2023-03-21T14:37:46;12.20;87.10
33655;DHT22;19997;51.274;22.506;2023-03-21T14:40:23;12.30;86.80
33655;DHT22;19997;51.274;22.506;2023-03-21T14:42:52;12.30;87.10
33655;DHT22;19997;51.274;22.506;2023-03-21T14:45:20;12.20;87.10
33655;DHT22;19997;51.274;22.506;2023-03-21T14:47:56;12.20;87.20
33655;DHT22;19997;51.274;22.506;2023-03-21T14:50:30;12.20;87.10
33655;DHT22;19997;51.274;22.506;2023-03-21T14:53:00;12.20;87.00
33655;DHT22;19997;51.274;22.506;2023-03-21T14:55:28;12.20;87.40
33655;DHT22;19997;51.274;22.506;2023-03-21T14:57:55;12.20;87.70
33655;DHT22;19997;51.274;22.506;2023-03-21T15:00:25;12.10;88.00
33655;DHT22;19997;51.274;22.506;2023-03-21T15:02:53;12.20;88.20
33655;DHT22;19997;51.274;22.506;2023-03-21T15:05:26;12.20;88.50
33655;DHT22;19997;51.274;22.506;2023-03-21T15:07:56;12.20;88.70
33655;DHT22;19997;51.274;22.506;2023-03-21T15:10:25;12.20;88.70
33655;DHT22;19997;51.274;22.506;2023-03-21T15:12:55;12.20;89.20
33655;DHT22;19997;51.274;22.506;2023-03-21T15:15:23;12.20;89.30
33655;DHT22;19997;51.274;22.506;2023-03-21T15:17:51;12.20;89.30
33655;DHT22;19997;51.274;22.506;2023-03-21T15:20:22;12.10;89.40
33655;DHT22;19997;51.274;22.506;2023-03-21T15:22:54;12.10;89.60
33655;DHT22;19997;51.274;22.506;2023-03-21T15:25:25;12.00;90.00
33655;DHT22;19997;51.274;22.506;2023-03-21T15:27:54;11.80;90.10
33655;DHT22;19997;51.274;22.506;2023-03-21T15:30:23;11.80;90.40
33655;DHT22;19997;51.274;22.506;2023-03-21T15:32:53;11.70;90.80
33655;DHT22;19997;51.274;22.506;2023-03-21T15:35:24;11.60;91.20
33655;DHT22;19997;51.274;22.506;2023-03-21T15:37:55;11.60;91.50
33655;DHT22;19997;51.274;22.506;2023-03-21T15:40:25;11.50;91.80
33655;DHT22;19997;51.274;22.506;2023-03-21T15:43:03;11.40;91.90
33655;DHT22;19997;51.274;22.506;2023-03-21T15:45:31;11.30;92.20
33655;DHT22;19997;51.274;22.506;2023-03-21T15:48:00;11.30;92.40
33655;DHT22;19997;51.274;22.506;2023-03-21T15:50:33;11.20;92.50
33655;DHT22;19997;51.274;22.506;2023-03-21T15:53:05;11.20;92.80